Aérodrome :
LOGIN :

S'inscrire | Disclaimer

   EN    FR    IT 

 










Légende :    VFR   VFR Marginal   IFR   IFR Intensif   IFR Très Intensif
Visi : 
Plafond : 
>= 8 km
>= 3000ft
5 à 8 km
1000 à 3000 ft
1500m à 5 km
500 à 1000 ft
800 à 1500m
200 à 500 ft
< 800m
< 200 ft
Symboles :   Orages  Brouillard  Fortes neiges  Fortes précipitations  Vent > 20 kt
SIGMETs :   Divers  Orages  Givrage  Turbulence  Onde Orograph.  Cendres Volcan.






- Altitude de l'aérodrome : 209 ft
- Code IATA : CLY


LFKC - Calvi

DERNIER METAR :
  • 110330Z AUTO 20005KT CAVOK 03/00 Q1018 NOSIG

METARs EXPIRÉS :
  • 110300Z AUTO 21004KT 140V230 CAVOK 03/00 Q1018 NOSIG
  • 110230Z AUTO 23005KT CAVOK 04/00 Q1018
  • 110200Z AUTO 21003KT 190V250 CAVOK 04/00 Q1018
  • 110130Z AUTO 21006KT CAVOK 05/01 Q1018
  • 110100Z AUTO 18007KT CAVOK 04/00 Q1019

TAF TAF LFKC
Valide du 11 à 03h jusqu'au 12 à 03h UTC


110200Z 1103/1203 19008KT CAVOK TX14/1112Z TN05/1103Z
TEMPO 1110/1116 34006KT
BECMG 1122/1124 8000 BKN030 BKN060
ATIS : +33 4 95 65 82 49



MET'MAP, la Météo Aéronautique d'un coup d'oeil ! - Copyright ORBIFLY Décembre 2007 - Disclaimer

ORBIFLY MET'MAP TEAM :

Programmation & Développement : Alexandra Zaïnal
Sur une idée originale de : Baudouin d'Aumeries
Assistance à la programmation : Marc-Olivier Méhu
Soutien technique & logistique : Manuel Goepfert

Contact : metmap@orbifly.com




SOURCES & CREDITS :

   NOAA